createdAt,value
2023-02-05T00:02:24.779Z,-0.02
2023-02-05T00:04:51.163Z,0.03
2023-02-05T00:07:17.559Z,-0.11
2023-02-05T00:09:44.063Z,-0.26
2023-02-05T00:12:10.583Z,-0.35
2023-02-05T00:14:37.153Z,-0.30
2023-02-05T00:17:03.549Z,-0.53
2023-02-05T00:19:29.950Z,-0.39
2023-02-05T00:21:56.365Z,-0.48
2023-02-05T00:24:22.786Z,-0.44
2023-02-05T00:26:49.333Z,-0.54
2023-02-05T00:29:15.837Z,-0.45
2023-02-05T00:31:42.402Z,-0.49
2023-02-05T00:34:08.866Z,-0.48
2023-02-05T00:36:35.250Z,-0.45
2023-02-05T00:39:01.727Z,-0.60
2023-02-05T00:41:28.150Z,-0.47
2023-02-05T00:43:54.536Z,-0.60
2023-02-05T00:46:21.012Z,-0.56
2023-02-05T00:48:47.497Z,-0.68
2023-02-05T00:51:13.932Z,-0.62
2023-02-05T00:53:40.370Z,-0.64
2023-02-05T00:56:07.071Z,-0.82
2023-02-05T00:58:34.104Z,-0.86
2023-02-05T01:01:00.591Z,-0.99
2023-02-05T01:03:27.256Z,-0.92
2023-02-05T01:05:53.692Z,-1.09
2023-02-05T01:08:20.071Z,-1.29
2023-02-05T01:10:48.878Z,-1.40
2023-02-05T01:13:17.754Z,-1.29
2023-02-05T01:15:45.351Z,-1.12
2023-02-05T01:18:11.816Z,-1.28
2023-02-05T01:20:39.390Z,-1.47
2023-02-05T01:23:06.125Z,-1.48
2023-02-05T01:25:32.949Z,-1.65
2023-02-05T01:27:59.541Z,-1.79
2023-02-05T01:30:25.981Z,-1.69
2023-02-05T01:32:52.476Z,-1.72
2023-02-05T01:35:19.081Z,-1.83
2023-02-05T01:37:45.504Z,-1.71
2023-02-05T01:40:17.192Z,-1.73
2023-02-05T01:42:43.802Z,-1.88
2023-02-05T01:45:22.268Z,-1.82
2023-02-05T01:47:54.507Z,-1.83
2023-02-05T01:50:27.597Z,-1.82
2023-02-05T01:52:56.002Z,-1.72
2023-02-05T01:55:22.527Z,-1.22
2023-02-05T01:57:50.471Z,-1.27
2023-02-05T02:00:17.200Z,-1.45
2023-02-05T02:02:44.255Z,-1.63
2023-02-05T02:05:13.631Z,-1.64
2023-02-05T02:07:40.353Z,-1.34
2023-02-05T02:10:09.462Z,-1.19
2023-02-05T02:12:39.466Z,-1.16
2023-02-05T02:15:12.146Z,-1.00
2023-02-05T02:17:42.194Z,-1.14
2023-02-05T02:20:15.614Z,-0.96
2023-02-05T02:23:12.508Z,-0.88
2023-02-05T02:25:48.136Z,-0.82
2023-02-05T02:28:20.568Z,-1.01
2023-02-05T02:31:02.645Z,-1.02
2023-02-05T02:33:46.265Z,-1.53
2023-02-05T02:36:29.886Z,-1.24
2023-02-05T02:39:06.806Z,-1.08
2023-02-05T02:41:43.273Z,-1.21
2023-02-05T02:44:14.199Z,-1.07
2023-02-05T02:46:45.392Z,-1.26
2023-02-05T02:49:17.035Z,-1.53
2023-02-05T02:51:46.403Z,-1.29
2023-02-05T02:54:16.687Z,-1.29
2023-02-05T02:56:45.031Z,-1.50
2023-02-05T02:59:17.999Z,-1.72
2023-02-05T03:01:53.754Z,-1.61
2023-02-05T03:04:34.288Z,-1.61
2023-02-05T03:07:10.071Z,-1.51
2023-02-05T03:09:47.094Z,-1.74
2023-02-05T03:12:13.502Z,-1.56
2023-02-05T03:14:40.053Z,-1.71
2023-02-05T03:17:06.756Z,-1.43
2023-02-05T03:19:33.159Z,-1.28
2023-02-05T03:22:04.219Z,-1.37
2023-02-05T03:24:32.146Z,-1.68
2023-02-05T03:26:58.758Z,-1.97
2023-02-05T03:29:32.810Z,-2.27
2023-02-05T03:32:17.900Z,-2.11
2023-02-05T03:34:55.044Z,-2.18
2023-02-05T03:37:28.806Z,-1.74
2023-02-05T03:40:17.981Z,-2.22
2023-02-05T03:43:12.611Z,-2.33
2023-02-05T03:45:54.156Z,-2.37
2023-02-05T03:48:29.490Z,-2.41
2023-02-05T03:51:03.654Z,-2.46
2023-02-05T03:53:41.143Z,-2.19
2023-02-05T03:56:17.577Z,-2.04
2023-02-05T03:58:48.983Z,-2.06
2023-02-05T04:01:16.212Z,-2.24
2023-02-05T04:03:42.853Z,-2.39
2023-02-05T04:06:09.341Z,-2.42
2023-02-05T04:08:36.044Z,-2.22
2023-02-05T04:11:02.599Z,-2.49
2023-02-05T04:13:29.147Z,-2.42
2023-02-05T04:15:55.554Z,-2.66
2023-02-05T04:18:21.920Z,-2.53
2023-02-05T04:20:49.154Z,-2.12
2023-02-05T04:23:15.551Z,-2.07
2023-02-05T04:25:42.295Z,-2.06
2023-02-05T04:28:10.465Z,-1.91
2023-02-05T04:30:37.002Z,-2.02
2023-02-05T04:33:03.461Z,-2.03
2023-02-05T04:35:30.853Z,-1.91
2023-02-05T04:37:57.224Z,-1.86
2023-02-05T04:40:23.706Z,-2.29
2023-02-05T04:42:50.064Z,-2.17
2023-02-05T04:45:16.486Z,-2.27
2023-02-05T04:47:42.908Z,-2.50
2023-02-05T04:50:09.609Z,-2.39
2023-02-05T04:52:36.018Z,-2.68
2023-02-05T04:55:02.412Z,-2.87
2023-02-05T04:57:30.497Z,-2.85
2023-02-05T04:59:57.229Z,-2.67
2023-02-05T05:02:24.359Z,-2.92
2023-02-05T05:04:50.808Z,-2.80
2023-02-05T05:07:17.182Z,-2.65
2023-02-05T05:09:43.621Z,-2.71
2023-02-05T05:12:09.983Z,-2.95
2023-02-05T05:14:37.596Z,-2.85
2023-02-05T05:17:04.534Z,-2.85
2023-02-05T05:19:30.943Z,-2.92
2023-02-05T05:21:57.287Z,-3.04
2023-02-05T05:24:23.720Z,-2.84
2023-02-05T05:26:50.107Z,-2.95
2023-02-05T05:29:16.629Z,-2.86
2023-02-05T05:31:43.227Z,-2.34
2023-02-05T05:34:09.676Z,-2.08
2023-02-05T05:36:36.159Z,-2.33
2023-02-05T05:39:21.333Z,-2.27
2023-02-05T05:42:06.193Z,-2.18
2023-02-05T05:44:32.564Z,-2.37
2023-02-05T05:46:59.062Z,-2.96
2023-02-05T05:49:25.513Z,-2.67
2023-02-05T05:51:51.880Z,-2.37
2023-02-05T05:54:18.227Z,-2.32
2023-02-05T05:56:45.150Z,-2.61
2023-02-05T05:59:12.687Z,-2.23
2023-02-05T06:01:39.126Z,-2.45
2023-02-05T06:04:05.691Z,-2.23
2023-02-05T06:06:32.117Z,-2.18
2023-02-05T06:08:58.522Z,-2.29
2023-02-05T06:11:24.919Z,-2.36
2023-02-05T06:13:51.301Z,-2.23
2023-02-05T06:16:18.715Z,-2.17
2023-02-05T06:18:45.110Z,-2.20
2023-02-05T06:21:11.534Z,-2.41
2023-02-05T06:23:37.895Z,-2.38
2023-02-05T06:26:04.456Z,-2.50
2023-02-05T06:28:30.840Z,-2.36
2023-02-05T06:30:57.361Z,-2.09
2023-02-05T06:33:23.910Z,-1.96
2023-02-05T06:35:50.336Z,-2.00
2023-02-05T06:38:16.877Z,-2.12
2023-02-05T06:40:43.268Z,-1.98
2023-02-05T06:43:09.665Z,-1.94
2023-02-05T06:45:36.514Z,-2.29
2023-02-05T06:48:03.263Z,-2.38
2023-02-05T06:50:29.810Z,-2.28
2023-02-05T06:52:56.564Z,-2.09
2023-02-05T06:55:23.030Z,-2.23
2023-02-05T06:57:49.442Z,-2.40
2023-02-05T07:00:16.863Z,-2.43
2023-02-05T07:02:43.489Z,-2.61
2023-02-05T07:05:10.103Z,-2.57
2023-02-05T07:07:36.558Z,-2.87
2023-02-05T07:10:04.243Z,-2.33
2023-02-05T07:12:31.202Z,-2.41
2023-02-05T07:14:57.601Z,-2.59
2023-02-05T07:17:26.315Z,-2.65
2023-02-05T07:19:53.176Z,-2.37
2023-02-05T07:22:19.807Z,-2.71
2023-02-05T07:24:46.198Z,-2.68
2023-02-05T07:27:12.623Z,-2.70
2023-02-05T07:29:39.152Z,-2.67
2023-02-05T07:32:05.688Z,-2.92
2023-02-05T07:34:32.157Z,-2.78
2023-02-05T07:36:59.604Z,-2.88
2023-02-05T07:39:28.127Z,-2.83
2023-02-05T07:41:54.666Z,-2.79
2023-02-05T07:44:21.594Z,-2.79
2023-02-05T07:46:48.722Z,-2.77
2023-02-05T07:49:15.114Z,-2.71
2023-02-05T07:51:41.497Z,-2.40
2023-02-05T07:54:09.419Z,-2.58
2023-02-05T07:56:36.186Z,-2.52
2023-02-05T07:59:03.135Z,-2.54
2023-02-05T08:01:29.549Z,-2.68
2023-02-05T08:03:56.013Z,-2.27
2023-02-05T08:06:22.471Z,-2.55
2023-02-05T08:08:48.880Z,-2.67
2023-02-05T08:11:17.421Z,-2.39
2023-02-05T08:13:45.140Z,-2.43
2023-02-05T08:16:12.424Z,-2.81
2023-02-05T08:18:38.829Z,-2.49
2023-02-05T08:21:05.508Z,-2.59
2023-02-05T08:23:32.002Z,-2.24
2023-02-05T08:25:59.518Z,-1.81
2023-02-05T08:28:27.514Z,-1.96
2023-02-05T08:30:54.112Z,-1.86
2023-02-05T08:33:20.656Z,-1.91
2023-02-05T08:35:47.047Z,-1.97
2023-02-05T08:38:13.467Z,-1.70
2023-02-05T08:40:39.835Z,-1.81
2023-02-05T08:43:08.392Z,-1.85
2023-02-05T08:45:35.115Z,-1.63
2023-02-05T08:48:01.746Z,-1.56
2023-02-05T08:50:28.157Z,-1.43
2023-02-05T08:52:54.547Z,-1.55
2023-02-05T08:55:20.902Z,-1.30
2023-02-05T08:57:47.365Z,-1.27
2023-02-05T09:00:15.130Z,-1.08
2023-02-05T09:02:42.956Z,-1.22
2023-02-05T09:05:11.508Z,-1.25
2023-02-05T09:07:41.896Z,-1.33
2023-02-05T09:10:12.139Z,-1.21
2023-02-05T09:12:39.138Z,-1.34
2023-02-05T09:15:07.083Z,-1.15
2023-02-05T09:17:33.539Z,-1.18
2023-02-05T09:19:59.958Z,-0.82
2023-02-05T09:22:26.359Z,-0.82
2023-02-05T09:24:52.736Z,-0.74
2023-02-05T09:27:20.155Z,-0.57
2023-02-05T09:29:46.662Z,-0.18
2023-02-05T09:32:15.068Z,-0.10
2023-02-05T09:34:41.520Z,-0.18
2023-02-05T09:37:07.954Z,0.06
2023-02-05T09:40:18.372Z,0.11
2023-02-05T09:42:58.621Z,0.40
2023-02-05T09:45:58.528Z,0.26
2023-02-05T09:48:40.175Z,0.53
2023-02-05T09:51:11.219Z,0.90
2023-02-05T09:53:43.914Z,0.97
2023-02-05T09:56:14.352Z,0.99
2023-02-05T09:58:46.100Z,1.28
2023-02-05T10:01:20.152Z,1.32
2023-02-05T10:03:55.995Z,1.55
2023-02-05T10:06:47.873Z,1.63
2023-02-05T10:09:36.413Z,1.41
2023-02-05T10:12:23.244Z,1.73
2023-02-05T10:15:07.941Z,1.77
2023-02-05T10:17:48.329Z,1.55
2023-02-05T10:20:26.829Z,1.56
2023-02-05T10:23:08.422Z,1.49
2023-02-05T10:25:51.172Z,1.53
2023-02-05T10:28:43.691Z,1.97
2023-02-05T10:31:18.141Z,1.98
2023-02-05T10:33:48.006Z,1.71
2023-02-05T10:36:15.919Z,1.79
2023-02-05T10:38:45.020Z,1.83
2023-02-05T10:41:19.324Z,2.16
2023-02-05T10:43:50.564Z,2.29
2023-02-05T10:46:17.995Z,2.32
2023-02-05T10:48:57.464Z,2.16
2023-02-05T10:51:45.371Z,2.12
2023-02-05T10:54:29.682Z,2.37
2023-02-05T10:57:00.955Z,2.27
2023-02-05T10:59:45.753Z,1.92
2023-02-05T11:02:12.336Z,2.45
2023-02-05T11:04:56.891Z,2.43
2023-02-05T11:07:46.339Z,2.38
2023-02-05T11:10:39.324Z,2.46
2023-02-05T11:13:20.390Z,2.40
2023-02-05T11:15:56.802Z,2.84
2023-02-05T11:18:27.583Z,2.59
2023-02-05T11:21:02.792Z,2.74
2023-02-05T11:23:39.575Z,2.58
2023-02-05T11:26:22.136Z,2.81
2023-02-05T11:28:55.653Z,2.67
2023-02-05T11:31:25.776Z,2.63
2023-02-05T11:34:09.496Z,2.26
2023-02-05T11:36:38.080Z,2.72
2023-02-05T11:39:07.005Z,2.91
2023-02-05T11:41:48.681Z,2.77
2023-02-05T11:44:24.295Z,2.84
2023-02-05T11:46:56.933Z,2.91
2023-02-05T11:49:32.298Z,2.76
2023-02-05T11:51:59.746Z,2.98
2023-02-05T11:54:32.991Z,3.04
2023-02-05T11:57:18.560Z,2.90
2023-02-05T12:00:18.055Z,2.97
2023-02-05T12:02:49.975Z,2.82
2023-02-05T12:05:21.579Z,3.07
2023-02-05T12:07:50.688Z,2.85
2023-02-05T12:10:26.573Z,3.06
2023-02-05T12:13:27.080Z,3.29
2023-02-05T12:15:57.488Z,3.14
2023-02-05T12:18:52.256Z,3.15
2023-02-05T12:21:33.223Z,3.14
2023-02-05T12:24:15.466Z,3.25
2023-02-05T12:26:57.401Z,3.19
2023-02-05T12:29:51.863Z,3.42
2023-02-05T12:32:36.509Z,3.38
2023-02-05T12:35:33.050Z,3.15
2023-02-05T12:38:21.124Z,3.23
2023-02-05T12:41:12.366Z,3.11
2023-02-05T12:43:41.904Z,3.03
2023-02-05T12:46:29.594Z,3.28
2023-02-05T12:49:11.999Z,3.03
2023-02-05T12:52:14.227Z,2.91
2023-02-05T12:55:02.797Z,3.20
2023-02-05T12:57:43.780Z,3.08
2023-02-05T13:00:22.989Z,2.74
2023-02-05T13:03:01.788Z,2.48
2023-02-05T13:05:34.656Z,2.77
2023-02-05T13:08:13.463Z,2.92
2023-02-05T13:10:52.164Z,2.92
2023-02-05T13:13:33.010Z,2.92
2023-02-05T13:16:11.520Z,2.58
2023-02-05T13:18:46.862Z,2.40
2023-02-05T13:21:39.478Z,2.80
2023-02-05T13:24:49.944Z,2.86
2023-02-05T13:28:09.282Z,2.98
2023-02-05T13:30:43.533Z,3.11
2023-02-05T13:33:09.972Z,3.18
2023-02-05T13:36:15.502Z,2.73
2023-02-05T13:39:26.416Z,2.38
2023-02-05T13:42:19.222Z,2.15
2023-02-05T13:45:25.664Z,2.29
2023-02-05T13:48:08.537Z,2.29
2023-02-05T13:51:12.897Z,2.35
2023-02-05T13:53:58.032Z,2.18
2023-02-05T13:56:49.352Z,2.08
2023-02-05T13:59:33.278Z,1.66
2023-02-05T14:02:01.784Z,1.73
2023-02-05T14:04:40.406Z,2.08
2023-02-05T14:07:30.142Z,2.01
2023-02-05T14:10:00.987Z,1.75
2023-02-05T14:12:34.107Z,1.94
2023-02-05T14:15:16.020Z,1.93
2023-02-05T14:17:43.461Z,2.17
2023-02-05T14:20:24.120Z,2.08
2023-02-05T14:23:04.008Z,2.05
2023-02-05T14:25:38.008Z,2.10
2023-02-05T14:28:04.396Z,2.17
2023-02-05T14:30:45.409Z,2.25
2023-02-05T14:33:37.907Z,2.13
2023-02-05T14:36:24.382Z,2.11
2023-02-05T14:38:51.703Z,2.07
2023-02-05T14:41:20.921Z,1.73
2023-02-05T14:44:01.799Z,1.90
2023-02-05T14:46:39.775Z,1.96
2023-02-05T14:49:20.087Z,1.97
2023-02-05T14:52:00.177Z,1.62
2023-02-05T14:54:31.030Z,1.61
2023-02-05T14:57:17.323Z,1.52
2023-02-05T15:00:07.235Z,1.26
2023-02-05T15:03:04.829Z,1.42
2023-02-05T15:05:37.866Z,1.22
2023-02-05T15:08:11.894Z,1.40
2023-02-05T15:11:03.511Z,1.33
2023-02-05T15:13:31.943Z,1.36
2023-02-05T15:16:21.021Z,1.36
2023-02-05T15:19:05.392Z,1.17
2023-02-05T15:21:39.663Z,1.19
2023-02-05T15:24:23.883Z,1.27
2023-02-05T15:26:57.027Z,1.28
2023-02-05T15:29:47.260Z,1.23
2023-02-05T15:32:28.309Z,1.29
2023-02-05T15:34:57.528Z,1.00
2023-02-05T15:37:26.845Z,1.16
2023-02-05T15:40:16.687Z,1.05
2023-02-05T15:42:47.286Z,0.91
2023-02-05T15:45:29.330Z,0.97
2023-02-05T15:48:11.066Z,1.03
2023-02-05T15:50:49.650Z,0.99
2023-02-05T15:53:31.243Z,0.99
2023-02-05T15:55:58.001Z,0.68
2023-02-05T15:58:27.011Z,0.68
2023-02-05T16:00:53.698Z,0.69
2023-02-05T16:03:36.303Z,0.69
2023-02-05T16:06:02.806Z,0.64
2023-02-05T16:08:31.117Z,0.58
2023-02-05T16:10:59.957Z,0.66
2023-02-05T16:13:30.064Z,0.59
2023-02-05T16:16:09.864Z,0.66
2023-02-05T16:18:42.801Z,0.43
2023-02-05T16:21:15.523Z,0.77
2023-02-05T16:23:48.003Z,0.84
2023-02-05T16:26:23.681Z,0.57
2023-02-05T16:29:16.936Z,0.55
2023-02-05T16:32:28.580Z,0.67
2023-02-05T16:34:55.296Z,0.49
2023-02-05T16:37:27.867Z,0.52
2023-02-05T16:39:55.779Z,0.53
2023-02-05T16:42:46.157Z,0.53
2023-02-05T16:45:21.700Z,0.73
2023-02-05T16:48:19.686Z,0.70
2023-02-05T16:50:46.218Z,0.54
2023-02-05T16:53:28.646Z,0.71
2023-02-05T16:56:27.397Z,0.71
2023-02-05T16:58:56.189Z,0.40
2023-02-05T17:01:27.858Z,0.64
2023-02-05T17:03:55.569Z,0.65
2023-02-05T17:06:33.568Z,0.50
2023-02-05T17:09:04.769Z,0.59
2023-02-05T17:11:43.663Z,0.67
2023-02-05T17:14:32.427Z,0.64
2023-02-05T17:17:23.283Z,0.67
2023-02-05T17:20:20.024Z,0.65
2023-02-05T17:23:07.905Z,0.75
2023-02-05T17:25:36.110Z,0.74
2023-02-05T17:28:04.841Z,0.62
2023-02-05T17:30:31.782Z,0.60
2023-02-05T17:32:58.246Z,0.46
2023-02-05T17:35:25.738Z,0.52
2023-02-05T17:37:54.108Z,0.55
2023-02-05T17:40:20.811Z,0.63
2023-02-05T17:42:47.916Z,0.59
2023-02-05T17:45:21.895Z,0.54
2023-02-05T17:47:48.838Z,0.55
2023-02-05T17:50:16.203Z,0.51
2023-02-05T17:52:44.132Z,0.63
2023-02-05T17:55:14.600Z,0.54
2023-02-05T17:57:43.029Z,0.46
2023-02-05T18:00:21.628Z,0.59
2023-02-05T18:02:49.582Z,0.68
2023-02-05T18:05:16.906Z,0.63
2023-02-05T18:07:49.437Z,0.79
2023-02-05T18:10:20.110Z,0.70
2023-02-05T18:12:48.307Z,0.61
2023-02-05T18:15:15.835Z,0.50
2023-02-05T18:17:42.286Z,0.62
2023-02-05T18:20:09.865Z,0.58
2023-02-05T18:22:36.584Z,0.68
2023-02-05T18:25:03.077Z,0.56
2023-02-05T18:27:31.796Z,0.50
2023-02-05T18:29:58.228Z,0.60
2023-02-05T18:32:25.309Z,0.67
2023-02-05T18:34:51.778Z,0.67
2023-02-05T18:37:18.519Z,0.53
2023-02-05T18:39:45.669Z,0.78
2023-02-05T18:42:12.810Z,0.87
2023-02-05T18:44:39.573Z,0.69
2023-02-05T18:47:07.160Z,0.44
2023-02-05T18:49:34.826Z,0.58
2023-02-05T18:52:02.144Z,0.43
2023-02-05T18:54:28.721Z,0.47
2023-02-05T18:56:56.287Z,0.20
2023-02-05T18:59:28.789Z,0.21
2023-02-05T19:01:55.858Z,0.19
2023-02-05T19:04:22.395Z,0.26
2023-02-05T19:06:54.470Z,0.32
2023-02-05T19:09:22.513Z,0.33
2023-02-05T19:11:50.636Z,0.49
2023-02-05T19:14:19.576Z,0.28
2023-02-05T19:16:47.237Z,0.47
2023-02-05T19:19:17.441Z,0.55
2023-02-05T19:21:48.843Z,0.57
2023-02-05T19:24:17.222Z,0.39
2023-02-05T19:26:44.737Z,0.49
2023-02-05T19:29:17.757Z,0.46
2023-02-05T19:31:44.992Z,0.24
2023-02-05T19:34:12.198Z,0.33
2023-02-05T19:36:39.860Z,0.27
2023-02-05T19:39:08.420Z,0.34
2023-02-05T19:41:36.589Z,0.30
2023-02-05T19:44:05.466Z,0.22
2023-02-05T19:46:36.977Z,0.38
2023-02-05T19:49:06.729Z,0.34
2023-02-05T19:51:34.223Z,0.53
2023-02-05T19:54:04.851Z,0.48
2023-02-05T19:56:32.423Z,0.40
2023-02-05T19:58:59.881Z,0.42
2023-02-05T20:01:31.855Z,0.22
2023-02-05T20:04:01.322Z,0.48
2023-02-05T20:06:29.463Z,0.34
2023-02-05T20:08:56.475Z,0.48
2023-02-05T20:11:23.080Z,0.51
2023-02-05T20:13:49.519Z,0.31
2023-02-05T20:16:19.212Z,0.20
2023-02-05T20:18:46.124Z,0.21
2023-02-05T20:21:15.346Z,0.49
2023-02-05T20:23:45.834Z,0.44
2023-02-05T20:26:12.300Z,0.56
2023-02-05T20:28:58.931Z,0.77
2023-02-05T20:31:34.507Z,0.50
2023-02-05T20:34:02.788Z,0.73
2023-02-05T20:36:31.416Z,0.67
2023-02-05T20:38:59.748Z,0.76
2023-02-05T20:41:26.790Z,0.67
2023-02-05T20:43:53.399Z,0.49
2023-02-05T20:46:20.528Z,0.54
2023-02-05T20:48:48.389Z,0.47
2023-02-05T20:51:18.844Z,0.46
2023-02-05T20:53:46.245Z,0.49
2023-02-05T20:56:15.690Z,0.82
2023-02-05T20:58:42.789Z,0.68
2023-02-05T21:01:14.764Z,0.39
2023-02-05T21:03:44.738Z,0.45
2023-02-05T21:06:14.372Z,0.54
2023-02-05T21:08:43.547Z,0.51
2023-02-05T21:11:10.116Z,0.24
2023-02-05T21:13:36.991Z,0.34
2023-02-05T21:16:04.038Z,0.30
2023-02-05T21:18:31.171Z,0.33
2023-02-05T21:21:31.364Z,0.48
2023-02-05T21:24:17.333Z,0.46
2023-02-05T21:26:46.297Z,0.13
2023-02-05T21:29:15.768Z,0.09
2023-02-05T21:31:46.350Z,0.09
2023-02-05T21:34:19.258Z,-0.14
2023-02-05T21:36:48.032Z,0.14
2023-02-05T21:39:15.792Z,0.35
2023-02-05T21:41:42.581Z,0.11
2023-02-05T21:44:08.984Z,0.35
2023-02-05T21:46:35.392Z,0.26
2023-02-05T21:49:02.059Z,0.22
2023-02-05T21:51:31.725Z,0.26
2023-02-05T21:53:59.801Z,-0.14
2023-02-05T21:56:29.144Z,0.15
2023-02-05T21:58:55.731Z,-0.10
2023-02-05T22:01:25.811Z,0.03
2023-02-05T22:03:55.687Z,0.17
2023-02-05T22:06:23.404Z,0.12
2023-02-05T22:08:50.918Z,0.02
2023-02-05T22:11:19.605Z,0.27
2023-02-05T22:13:48.064Z,0.11
2023-02-05T22:16:17.905Z,-0.03
2023-02-05T22:18:44.688Z,-0.02
2023-02-05T22:21:18.478Z,0.31
2023-02-05T22:23:48.967Z,0.40
2023-02-05T22:26:17.935Z,0.29
2023-02-05T22:28:45.861Z,0.38
2023-02-05T22:31:15.785Z,0.31
2023-02-05T22:33:44.479Z,0.39
2023-02-05T22:36:13.166Z,0.49
2023-02-05T22:38:41.688Z,0.48
2023-02-05T22:41:13.890Z,0.42
2023-02-05T22:43:40.466Z,0.21
2023-02-05T22:46:12.850Z,0.20
2023-02-05T22:48:42.870Z,0.36
2023-02-05T22:51:11.925Z,0.41
2023-02-05T22:53:38.752Z,0.41
2023-02-05T22:56:08.077Z,0.11
2023-02-05T22:58:35.140Z,0.63
2023-02-05T23:01:15.155Z,0.65
2023-02-05T23:03:42.220Z,0.46
2023-02-05T23:06:16.842Z,0.29
2023-02-05T23:08:44.329Z,0.25
2023-02-05T23:11:13.069Z,0.46
2023-02-05T23:13:40.810Z,0.32
2023-02-05T23:16:22.258Z,0.51
2023-02-05T23:18:49.934Z,0.39
2023-02-05T23:21:22.579Z,0.33
2023-02-05T23:23:49.871Z,0.53
2023-02-05T23:26:22.006Z,0.63
2023-02-05T23:28:49.192Z,0.57
2023-02-05T23:31:16.716Z,0.40
2023-02-05T23:33:43.209Z,0.14
2023-02-05T23:36:10.704Z,0.03
2023-02-05T23:38:37.500Z,0.18
2023-02-05T23:41:04.659Z,0.30
2023-02-05T23:43:32.775Z,0.34
2023-02-05T23:45:59.668Z,0.75
2023-02-05T23:48:26.260Z,0.08
2023-02-05T23:50:53.680Z,0.19
2023-02-05T23:53:21.150Z,0.15
2023-02-05T23:55:48.896Z,0.34
2023-02-05T23:58:16.153Z,0.25
